sensor_id;sensor_type;location;lat;lon;timestamp;temperature;humidity
9265;DHT22;4669;49.594;10.958;2022-09-03T04:21:01;15.50;89.10
9265;DHT22;4669;49.594;10.958;2022-09-03T04:26:04;15.60;89.00
9265;DHT22;4669;49.594;10.958;2022-09-03T04:31:09;15.60;88.90
9265;DHT22;4669;49.594;10.958;2022-09-03T04:36:13;15.70;88.80
9265;DHT22;4669;49.594;10.958;2022-09-03T04:41:17;15.60;88.90
9265;DHT22;4669;49.594;10.958;2022-09-03T04:46:22;15.60;88.90
9265;DHT22;4669;49.594;10.958;2022-09-03T04:51:27;15.60;89.60
9265;DHT22;4669;49.594;10.958;2022-09-03T04:56:31;15.60;88.90
9265;DHT22;4669;49.594;10.958;2022-09-03T05:01:35;15.60;89.60
9265;DHT22;4669;49.594;10.958;2022-09-03T05:06:38;15.70;89.50
9265;DHT22;4669;49.594;10.958;2022-09-03T05:11:40;15.60;89.70
9265;DHT22;4669;49.594;10.958;2022-09-03T05:16:43;15.70;89.50
9265;DHT22;4669;49.594;10.958;2022-09-03T05:21:46;15.70;89.30
9265;DHT22;4669;49.594;10.958;2022-09-03T05:26:48;15.60;89.40
9265;DHT22;4669;49.594;10.958;2022-09-03T05:31:50;15.40;90.00
9265;DHT22;4669;49.594;10.958;2022-09-03T05:36:53;15.40;90.30
9265;DHT22;4669;49.594;10.958;2022-09-03T05:41:56;15.40;90.20
9265;DHT22;4669;49.594;10.958;2022-09-03T05:46:58;15.40;90.30
9265;DHT22;4669;49.594;10.958;2022-09-03T05:52:02;15.40;90.40
9265;DHT22;4669;49.594;10.958;2022-09-03T05:57:04;15.40;90.50
9265;DHT22;4669;49.594;10.958;2022-09-03T06:02:06;15.60;90.40
9265;DHT22;4669;49.594;10.958;2022-09-03T06:07:09;15.70;90.40
9265;DHT22;4669;49.594;10.958;2022-09-03T06:12:12;15.80;90.40
9265;DHT22;4669;49.594;10.958;2022-09-03T06:17:14;15.90;90.10
9265;DHT22;4669;49.594;10.958;2022-09-03T06:22:17;15.90;90.20
9265;DHT22;4669;49.594;10.958;2022-09-03T06:27:19;15.90;90.40
9265;DHT22;4669;49.594;10.958;2022-09-03T06:32:21;16.10;90.30
9265;DHT22;4669;49.594;10.958;2022-09-03T06:37:24;16.20;90.40
9265;DHT22;4669;49.594;10.958;2022-09-03T06:42:26;16.30;90.20
9265;DHT22;4669;49.594;10.958;2022-09-03T06:47:29;16.30;90.40
9265;DHT22;4669;49.594;10.958;2022-09-03T06:52:33;16.40;90.30
9265;DHT22;4669;49.594;10.958;2022-09-03T06:57:35;16.50;90.20
9265;DHT22;4669;49.594;10.958;2022-09-03T07:02:37;16.60;90.00
9265;DHT22;4669;49.594;10.958;2022-09-03T07:07:42;16.70;90.00
9265;DHT22;4669;49.594;10.958;2022-09-03T07:12:45;17.00;89.50
9265;DHT22;4669;49.594;10.958;2022-09-03T07:17:49;17.20;89.90
9265;DHT22;4669;49.594;10.958;2022-09-03T07:22:55;17.40;88.80
9265;DHT22;4669;49.594;10.958;2022-09-03T07:27:57;17.60;89.00
9265;DHT22;4669;49.594;10.958;2022-09-03T07:32:59;17.70;87.40
9265;DHT22;4669;49.594;10.958;2022-09-03T07:38:05;17.80;87.50
9265;DHT22;4669;49.594;10.958;2022-09-03T07:43:07;17.90;86.70
9265;DHT22;4669;49.594;10.958;2022-09-03T07:48:09;17.90;86.20
9265;DHT22;4669;49.594;10.958;2022-09-03T07:53:14;18.00;85.40
9265;DHT22;4669;49.594;10.958;2022-09-03T07:58:16;17.90;87.10
9265;DHT22;4669;49.594;10.958;2022-09-03T08:03:18;17.90;88.00
9265;DHT22;4669;49.594;10.958;2022-09-03T08:08:21;18.00;86.70
9265;DHT22;4669;49.594;10.958;2022-09-03T08:13:23;18.10;86.70
9265;DHT22;4669;49.594;10.958;2022-09-03T08:18:26;18.20;85.60
9265;DHT22;4669;49.594;10.958;2022-09-03T08:23:38;18.30;85.50
9265;DHT22;4669;49.594;10.958;2022-09-03T08:28:41;18.40;85.90
9265;DHT22;4669;49.594;10.958;2022-09-03T08:33:44;18.60;85.90
9265;DHT22;4669;49.594;10.958;2022-09-03T08:38:49;18.90;85.70
9265;DHT22;4669;49.594;10.958;2022-09-03T08:44:11;19.20;84.50
9265;DHT22;4669;49.594;10.958;2022-09-03T08:49:17;19.40;84.30
9265;DHT22;4669;49.594;10.958;2022-09-03T08:54:26;19.50;84.20
9265;DHT22;4669;49.594;10.958;2022-09-03T08:59:30;19.60;84.10
9265;DHT22;4669;49.594;10.958;2022-09-03T09:04:45;19.60;84.20
9265;DHT22;4669;49.594;10.958;2022-09-03T09:09:56;19.50;84.10
9265;DHT22;4669;49.594;10.958;2022-09-03T09:15:07;19.40;85.30
9265;DHT22;4669;49.594;10.958;2022-09-03T09:20:16;19.50;84.90
9265;DHT22;4669;49.594;10.958;2022-09-03T09:25:22;19.50;84.10
9265;DHT22;4669;49.594;10.958;2022-09-03T09:30:27;19.50;84.70
9265;DHT22;4669;49.594;10.958;2022-09-03T09:35:29;19.60;84.80
9265;DHT22;4669;49.594;10.958;2022-09-03T09:40:35;19.70;84.40
9265;DHT22;4669;49.594;10.958;2022-09-03T09:45:43;19.70;84.50
9265;DHT22;4669;49.594;10.958;2022-09-03T09:50:46;19.70;84.60
9265;DHT22;4669;49.594;10.958;2022-09-03T09:55:51;19.70;85.00
9265;DHT22;4669;49.594;10.958;2022-09-03T10:00:55;19.70;85.40
9265;DHT22;4669;49.594;10.958;2022-09-03T10:06:02;19.90;86.20
9265;DHT22;4669;49.594;10.958;2022-09-03T10:11:26;20.00;84.50
9265;DHT22;4669;49.594;10.958;2022-09-03T10:16:32;20.10;84.50
9265;DHT22;4669;49.594;10.958;2022-09-03T10:21:42;20.10;84.60
9265;DHT22;4669;49.594;10.958;2022-09-03T10:26:47;20.30;84.20
9265;DHT22;4669;49.594;10.958;2022-09-03T10:32:03;20.40;83.70
9265;DHT22;4669;49.594;10.958;2022-09-03T10:37:18;20.60;82.80
9265;DHT22;4669;49.594;10.958;2022-09-03T10:42:34;20.80;82.90
9265;DHT22;4669;49.594;10.958;2022-09-03T10:48:06;21.20;81.30
9265;DHT22;4669;49.594;10.958;2022-09-03T10:53:17;21.50;81.60
9265;DHT22;4669;49.594;10.958;2022-09-03T10:58:47;21.80;82.10
9265;DHT22;4669;49.594;10.958;2022-09-03T11:03:58;21.90;80.70
9265;DHT22;4669;49.594;10.958;2022-09-03T11:09:10;21.90;81.80
9265;DHT22;4669;49.594;10.958;2022-09-03T11:14:23;22.10;80.90
9265;DHT22;4669;49.594;10.958;2022-09-03T11:19:33;22.10;80.60
9265;DHT22;4669;49.594;10.958;2022-09-03T11:24:38;22.10;81.30
9265;DHT22;4669;49.594;10.958;2022-09-03T11:29:48;22.10;80.70
9265;DHT22;4669;49.594;10.958;2022-09-03T11:34:52;22.20;81.80
9265;DHT22;4669;49.594;10.958;2022-09-03T11:39:57;22.20;81.90
9265;DHT22;4669;49.594;10.958;2022-09-03T11:45:19;22.20;82.70
9265;DHT22;4669;49.594;10.958;2022-09-03T11:50:24;22.30;82.30
9265;DHT22;4669;49.594;10.958;2022-09-03T11:55:29;22.30;83.20
9265;DHT22;4669;49.594;10.958;2022-09-03T12:00:34;22.30;83.60
9265;DHT22;4669;49.594;10.958;2022-09-03T12:05:45;22.40;83.30
9265;DHT22;4669;49.594;10.958;2022-09-03T12:10:56;22.40;84.10
9265;DHT22;4669;49.594;10.958;2022-09-03T12:16:23;22.60;83.30
9265;DHT22;4669;49.594;10.958;2022-09-03T12:21:28;22.70;83.00
9265;DHT22;4669;49.594;10.958;2022-09-03T12:26:38;22.80;82.70
9265;DHT22;4669;49.594;10.958;2022-09-03T12:31:45;23.10;82.20
9265;DHT22;4669;49.594;10.958;2022-09-03T12:36:51;23.10;82.70
9265;DHT22;4669;49.594;10.958;2022-09-03T12:41:58;23.10;82.10
9265;DHT22;4669;49.594;10.958;2022-09-03T12:47:05;23.20;83.30
9265;DHT22;4669;49.594;10.958;2022-09-03T12:52:13;23.40;82.30
9265;DHT22;4669;49.594;10.958;2022-09-03T12:57:20;23.30;83.40
9265;DHT22;4669;49.594;10.958;2022-09-03T13:02:27;23.20;83.70
9265;DHT22;4669;49.594;10.958;2022-09-03T13:07:35;23.00;83.80
9265;DHT22;4669;49.594;10.958;2022-09-03T13:12:42;22.80;84.40
9265;DHT22;4669;49.594;10.958;2022-09-03T13:18:09;22.60;85.00
9265;DHT22;4669;49.594;10.958;2022-09-03T13:23:31;22.60;86.60
9265;DHT22;4669;49.594;10.958;2022-09-03T13:28:49;22.60;86.40
9265;DHT22;4669;49.594;10.958;2022-09-03T13:34:01;22.40;85.70
9265;DHT22;4669;49.594;10.958;2022-09-03T13:39:21;22.40;86.00
9265;DHT22;4669;49.594;10.958;2022-09-03T13:44:36;22.50;85.50
9265;DHT22;4669;49.594;10.958;2022-09-03T13:49:48;22.70;85.00
9265;DHT22;4669;49.594;10.958;2022-09-03T13:55:13;22.70;85.50
9265;DHT22;4669;49.594;10.958;2022-09-03T14:00:22;22.70;84.80
9265;DHT22;4669;49.594;10.958;2022-09-03T14:05:40;22.70;85.20
9265;DHT22;4669;49.594;10.958;2022-09-03T14:10:54;22.70;84.80
9265;DHT22;4669;49.594;10.958;2022-09-03T14:16:05;22.70;85.50
9265;DHT22;4669;49.594;10.958;2022-09-03T14:21:14;22.70;86.30
9265;DHT22;4669;49.594;10.958;2022-09-03T14:26:21;22.70;86.10
9265;DHT22;4669;49.594;10.958;2022-09-03T14:37:01;22.60;86.20
9265;DHT22;4669;49.594;10.958;2022-09-03T14:42:29;22.60;86.50
9265;DHT22;4669;49.594;10.958;2022-09-03T14:47:42;22.70;86.10
9265;DHT22;4669;49.594;10.958;2022-09-03T14:52:58;22.60;86.30
9265;DHT22;4669;49.594;10.958;2022-09-03T14:58:18;22.50;86.60
9265;DHT22;4669;49.594;10.958;2022-09-03T15:03:45;22.40;87.10
9265;DHT22;4669;49.594;10.958;2022-09-03T15:09:07;22.40;87.50
9265;DHT22;4669;49.594;10.958;2022-09-03T15:14:17;22.30;87.80
9265;DHT22;4669;49.594;10.958;2022-09-03T15:19:41;22.20;88.30
9265;DHT22;4669;49.594;10.958;2022-09-03T15:24:52;22.20;88.20
9265;DHT22;4669;49.594;10.958;2022-09-03T15:30:00;22.00;89.10
9265;DHT22;4669;49.594;10.958;2022-09-03T15:35:08;21.90;89.70
9265;DHT22;4669;49.594;10.958;2022-09-03T15:40:23;21.80;90.20
9265;DHT22;4669;49.594;10.958;2022-09-03T15:45:33;21.70;90.40
9265;DHT22;4669;49.594;10.958;2022-09-03T15:50:47;21.70;90.70
9265;DHT22;4669;49.594;10.958;2022-09-03T15:56:06;21.60;91.20
9265;DHT22;4669;49.594;10.958;2022-09-03T16:01:20;21.50;91.30
9265;DHT22;4669;49.594;10.958;2022-09-03T16:06:30;21.50;91.60
9265;DHT22;4669;49.594;10.958;2022-09-03T16:11:47;21.40;91.80
9265;DHT22;4669;49.594;10.958;2022-09-03T16:16:59;21.40;91.90
9265;DHT22;4669;49.594;10.958;2022-09-03T16:22:05;21.20;93.60
9265;DHT22;4669;49.594;10.958;2022-09-03T16:27:14;20.70;95.00
9265;DHT22;4669;49.594;10.958;2022-09-03T16:32:26;20.10;98.10
9265;DHT22;4669;49.594;10.958;2022-09-03T16:37:35;19.50;99.30
9265;DHT22;4669;49.594;10.958;2022-09-03T16:42:44;19.10;99.90
9265;DHT22;4669;49.594;10.958;2022-09-03T16:48:08;19.10;99.90
9265;DHT22;4669;49.594;10.958;2022-09-03T16:53:15;19.20;99.90
9265;DHT22;4669;49.594;10.958;2022-09-03T16:58:28;19.20;99.90
9265;DHT22;4669;49.594;10.958;2022-09-03T17:03:56;19.20;99.90
9265;DHT22;4669;49.594;10.958;2022-09-03T17:09:14;19.20;99.90
9265;DHT22;4669;49.594;10.958;2022-09-03T17:14:45;19.10;99.90
9265;DHT22;4669;49.594;10.958;2022-09-03T17:19:54;19.10;99.90
9265;DHT22;4669;49.594;10.958;2022-09-03T17:25:00;19.00;99.90
9265;DHT22;4669;49.594;10.958;2022-09-03T17:30:09;19.00;99.90
9265;DHT22;4669;49.594;10.958;2022-09-03T17:35:16;19.10;99.90
9265;DHT22;4669;49.594;10.958;2022-09-03T17:40:27;19.20;99.90
9265;DHT22;4669;49.594;10.958;2022-09-03T17:45:43;19.20;99.90
9265;DHT22;4669;49.594;10.958;2022-09-03T17:50:52;19.20;99.90
9265;DHT22;4669;49.594;10.958;2022-09-03T17:55:59;19.10;99.90
9265;DHT22;4669;49.594;10.958;2022-09-03T18:01:11;19.10;99.90
9265;DHT22;4669;49.594;10.958;2022-09-03T18:06:23;19.00;99.90
9265;DHT22;4669;49.594;10.958;2022-09-03T18:11:32;18.90;99.90
9265;DHT22;4669;49.594;10.958;2022-09-03T18:16:41;19.00;99.90
9265;DHT22;4669;49.594;10.958;2022-09-03T18:21:46;19.00;99.90
9265;DHT22;4669;49.594;10.958;2022-09-03T18:27:10;19.00;99.90
9265;DHT22;4669;49.594;10.958;2022-09-03T18:32:32;19.00;99.90
9265;DHT22;4669;49.594;10.958;2022-09-03T18:37:52;19.00;99.90
9265;DHT22;4669;49.594;10.958;2022-09-03T18:43:16;18.80;99.90
9265;DHT22;4669;49.594;10.958;2022-09-03T18:48:46;18.90;99.90
9265;DHT22;4669;49.594;10.958;2022-09-03T18:54:18;18.90;99.90
9265;DHT22;4669;49.594;10.958;2022-09-03T19:00:03;18.90;99.90
9265;DHT22;4669;49.594;10.958;2022-09-03T19:05:28;18.80;99.90
9265;DHT22;4669;49.594;10.958;2022-09-03T19:10:54;18.80;99.90
9265;DHT22;4669;49.594;10.958;2022-09-03T19:16:21;18.90;99.90
9265;DHT22;4669;49.594;10.958;2022-09-03T19:21:47;18.90;99.90
9265;DHT22;4669;49.594;10.958;2022-09-03T19:27:12;18.80;99.90
9265;DHT22;4669;49.594;10.958;2022-09-03T19:32:39;18.70;99.90
9265;DHT22;4669;49.594;10.958;2022-09-03T19:38:13;18.60;99.90
9265;DHT22;4669;49.594;10.958;2022-09-03T19:43:39;18.70;99.90
9265;DHT22;4669;49.594;10.958;2022-09-03T19:49:09;18.70;99.90
9265;DHT22;4669;49.594;10.958;2022-09-03T19:54:32;18.60;99.90
9265;DHT22;4669;49.594;10.958;2022-09-03T19:59:51;18.60;99.90
9265;DHT22;4669;49.594;10.958;2022-09-03T20:05:17;18.60;99.90
9265;DHT22;4669;49.594;10.958;2022-09-03T20:10:41;18.50;99.90
9265;DHT22;4669;49.594;10.958;2022-09-03T20:15:52;18.50;99.90
9265;DHT22;4669;49.594;10.958;2022-09-03T20:21:06;18.40;99.90
9265;DHT22;4669;49.594;10.958;2022-09-03T20:26:30;18.30;99.90
9265;DHT22;4669;49.594;10.958;2022-09-03T20:31:43;18.30;99.90
9265;DHT22;4669;49.594;10.958;2022-09-03T20:36:54;18.30;99.90
9265;DHT22;4669;49.594;10.958;2022-09-03T20:42:13;18.30;99.90
9265;DHT22;4669;49.594;10.958;2022-09-03T20:47:40;18.40;99.90
9265;DHT22;4669;49.594;10.958;2022-09-03T20:52:51;18.50;99.90
9265;DHT22;4669;49.594;10.958;2022-09-03T20:58:02;18.50;99.90
9265;DHT22;4669;49.594;10.958;2022-09-03T21:03:15;18.50;99.90
9265;DHT22;4669;49.594;10.958;2022-09-03T21:08:31;18.30;99.90
9265;DHT22;4669;49.594;10.958;2022-09-03T21:13:44;18.30;99.90
9265;DHT22;4669;49.594;10.958;2022-09-03T21:18:58;18.30;99.90
9265;DHT22;4669;49.594;10.958;2022-09-03T21:24:05;18.20;99.90
9265;DHT22;4669;49.594;10.958;2022-09-03T21:29:15;18.20;99.90
9265;DHT22;4669;49.594;10.958;2022-09-03T21:34:20;18.20;99.90
9265;DHT22;4669;49.594;10.958;2022-09-03T21:39:29;18.20;99.90
9265;DHT22;4669;49.594;10.958;2022-09-03T21:44:49;18.10;99.90
9265;DHT22;4669;49.594;10.958;2022-09-03T21:49:59;18.20;99.90
9265;DHT22;4669;49.594;10.958;2022-09-03T21:55:02;18.10;99.90
